METAR AND TAF INFORMATION
METAR FOR EFVA
ADDS - METARS form results

(1818 UTC 15 July 2020)
Data provider http://aviationweather.gov/metar/data/
 
METAR text: EFVA 151750Z AUTO VRB01KT CAVOK 17/14 Q1014
Conditions at: EFVA (VAASA , FI) observed 1750 UTC 15 July 2020
Temperature: 17.0°C (63°F)
Dewpoint: 14.0°C (57°F) [RH = 82%]
Pressure (altimeter): 29.94 inches Hg (1014.0 mb)
Winds: variable direction winds at 1 MPH (1 knots; 0.5 m/s)
Visibility: 6 or more miles (10+ km)
Ceiling: ceiling and visibility are OK
Clouds: unknown
Weather: no significant weather observed at this time

METAR text: EFVA 151720Z AUTO VRB02KT CAVOK 16/15 Q1014
Conditions at: EFVA (VAASA , FI) observed 1720 UTC 15 July 2020
Temperature: 16.0°C (61°F)
Dewpoint: 15.0°C (59°F) [RH = 94%]
Pressure (altimeter): 29.94 inches Hg (1014.0 mb)
Winds: variable direction winds at 2 MPH (2 knots; 1.0 m/s)
Visibility: 6 or more miles (10+ km)
Ceiling: ceiling and visibility are OK
Clouds: unknown
Weather: no significant weather observed at this time

Forecast for: EFVA (VAASA , FI)
Text: TAF EFVA 151735Z 1518/1618 VRB02KT CAVOK
Forecast period: 1800 UTC 15 July 2020 to 1000 UTC 16 July 2020
Forecast type: FROM: standard forecast or significant change
Winds: variable direction winds at 2 MPH (2 knots; 1.0 m/s)
Visibility: 6 or more miles 10+ km)
Ceiling: unknown
Clouds: missing
Weather: NSW  (no significant weather)
Text: TEMPO 1523/1604 1200 BCFG
Forecast period: 2300 UTC 15 July 2020 to 0400 UTC 16 July 2020
Forecast type: TEMPORARY: The following changes expected for less than half the time period
Visibility: 0.75 miles (1.21 km)
Ceiling: unknown
Clouds: missing
Weather: BCFG  (patches of fog)
Text: BECMG 1610/1612 31010KT
Forecast period: 1000 to 1800 UTC 16 July 2020
Forecast type: BECOMING: Conditions expected to become as follows by 1200 UTC 16 July 2020
Winds: from the NW (310 degrees) at 12 MPH (10 knots; 5.1 m/s)
Visibility: 6 or more miles 10+ km)
Ceiling: unknown
Clouds: missing
Weather: NSW  (no significant weather)

 AIRPORT MAP

 RUNWAY INFORMATION
Runway 16 Runway length 8727 ft Runway width 157 ft
Runway elevation 19 ft Runway displaced threshold 0 ft Runway heading 163
Runway 34 Runway length 8727 ft Runway width 157 ft
Runway elevation 11 ft Runway displaced threshold 525 ft Runway heading 343

 AIRPORT FREQUENCIES
Type ATIS Name ATIS Frequency 114.5 MHZ
Type TWR Name TWR Frequency 119.3 MHZ

 AIRPORT NEAR NAVIGATION AIDS
Type VOR-DME Name Vaasa Frequency 114500 KHZ



Powered by Virtual Airlines Manager [v2.6.2]